KBTP/BTP METAR and TAF weather

Enter ICAO airport designator
Station Type Date Time Source
KBTP METAR 2022/01/26 13:56 UTC NOAA

KBTP 261356Z AUTO 24004KT 5SM HZ CLR M12/M14 A3034 RMK AO2 SLP306 T11171144 FZRANO


Station Type Date Time Source
KBTP Decoded METAR 2022/01/26 13:56 UTC NOAA

Butler, Butler County Airport/K W Scholter Field, PA, United States (KBTP) 40-47N 079-57W
Jan 26, 2022 - 08:56 AM EST / 2022.01.26 1356 UTC
Wind: from the WSW (240 degrees) at 5 MPH (4 KT):0
Visibility: 5 mile(s):0
Sky conditions: clear
Weather: haze
Temperature: 10.9 F (-11.7 C)
Windchill: 1 F (-17 C):1
Dew Point: 6.1 F (-14.4 C)
Relative Humidity: 80%
Pressure (altimeter): 30.34 in. Hg (1027 hPa)
ob: KBTP 261356Z AUTO 24004KT 5SM HZ CLR M12/M14 A3034 RMK AO2 SLP306 T11171144 FZRANO
cycle: 14

Station Type Date Time Source
KBTP TAF UTC NOAA

Error!

Example: see airport list